createdAt,value
2017-06-21T00:01:45.560Z,60.80
2017-06-21T00:04:11.885Z,60.90
2017-06-21T00:06:38.359Z,61.00
2017-06-21T00:09:04.692Z,61.10
2017-06-21T00:11:31.036Z,61.10
2017-06-21T00:13:57.775Z,61.10
2017-06-21T00:16:24.248Z,61.20
2017-06-21T00:18:50.588Z,61.10
2017-06-21T00:21:16.920Z,61.20
2017-06-21T00:23:50.121Z,61.40
2017-06-21T00:26:16.480Z,61.40
2017-06-21T00:28:42.792Z,61.60
2017-06-21T00:31:09.110Z,61.70
2017-06-21T00:33:35.460Z,61.60
2017-06-21T00:36:01.890Z,61.60
2017-06-21T00:38:28.258Z,61.60
2017-06-21T00:40:54.565Z,61.70
2017-06-21T00:43:21.181Z,61.80
2017-06-21T00:45:47.512Z,61.90
2017-06-21T00:48:14.043Z,61.80
2017-06-21T00:50:40.424Z,61.90
2017-06-21T00:53:06.755Z,61.90
2017-06-21T00:55:33.060Z,62.00
2017-06-21T00:57:59.502Z,62.00
2017-06-21T01:00:25.812Z,62.20
2017-06-21T01:02:52.146Z,62.10
2017-06-21T01:05:18.524Z,62.20
2017-06-21T01:07:45.702Z,62.40
2017-06-21T01:10:12.044Z,62.40
2017-06-21T01:12:38.369Z,62.40
2017-06-21T01:15:04.713Z,62.50
2017-06-21T01:17:31.094Z,62.60
2017-06-21T01:19:58.228Z,62.70
2017-06-21T01:22:25.289Z,62.60
2017-06-21T01:24:52.380Z,62.70
2017-06-21T01:27:18.683Z,62.30
2017-06-21T01:29:44.996Z,62.30
2017-06-21T01:32:12.069Z,62.70
2017-06-21T01:34:38.400Z,62.60
2017-06-21T01:37:04.752Z,62.80
2017-06-21T01:39:31.107Z,62.70
2017-06-21T01:41:57.445Z,62.60
2017-06-21T01:44:23.795Z,62.60
2017-06-21T01:46:50.140Z,62.40
2017-06-21T01:49:17.227Z,62.50
2017-06-21T01:51:43.587Z,62.30
2017-06-21T01:54:09.929Z,62.80
2017-06-21T01:56:36.267Z,62.80
2017-06-21T01:59:02.596Z,62.80
2017-06-21T02:01:28.904Z,62.90
2017-06-21T02:03:55.231Z,62.90
2017-06-21T02:06:21.530Z,63.00
2017-06-21T02:08:47.859Z,62.80
2017-06-21T02:11:14.180Z,62.70
2017-06-21T02:13:40.513Z,62.60
2017-06-21T02:16:06.906Z,62.50
2017-06-21T02:18:33.420Z,62.60
2017-06-21T02:20:59.729Z,62.50
2017-06-21T02:23:26.084Z,62.50
2017-06-21T02:25:52.415Z,62.30
2017-06-21T02:28:18.717Z,62.20
2017-06-21T02:30:45.073Z,62.20
2017-06-21T02:33:11.414Z,62.30
2017-06-21T02:35:37.740Z,62.20
2017-06-21T02:38:04.051Z,62.10
2017-06-21T02:40:30.386Z,62.10
2017-06-21T02:42:56.691Z,62.10
2017-06-21T02:45:23.140Z,62.20
2017-06-21T02:47:49.459Z,62.20
2017-06-21T02:50:15.755Z,62.30
2017-06-21T02:52:42.124Z,62.60
2017-06-21T02:55:08.431Z,62.60
2017-06-21T02:57:34.765Z,62.80
2017-06-21T03:00:01.066Z,63.00
2017-06-21T03:02:27.401Z,63.00
2017-06-21T03:04:54.447Z,63.30
2017-06-21T03:07:20.771Z,62.90
2017-06-21T03:09:47.070Z,62.90
2017-06-21T03:12:13.393Z,62.90
2017-06-21T03:14:39.737Z,62.80
2017-06-21T03:17:06.047Z,63.00
2017-06-21T03:19:32.389Z,63.10
2017-06-21T03:21:58.705Z,63.20
2017-06-21T03:24:25.031Z,63.30
2017-06-21T03:26:51.339Z,63.00
2017-06-21T03:29:18.485Z,63.00
2017-06-21T03:31:45.527Z,63.00
2017-06-21T03:34:12.596Z,63.10
2017-06-21T03:36:38.902Z,63.00
2017-06-21T03:39:05.998Z,63.30
2017-06-21T03:41:32.294Z,63.30
2017-06-21T03:43:59.331Z,63.50
2017-06-21T03:46:26.401Z,63.60
2017-06-21T03:48:52.703Z,63.60
2017-06-21T03:51:19.819Z,64.00
2017-06-21T03:53:46.126Z,63.90
2017-06-21T03:56:12.455Z,64.10
2017-06-21T03:58:38.763Z,64.30
2017-06-21T04:01:05.087Z,64.20
2017-06-21T04:03:32.131Z,64.40
2017-06-21T04:05:59.215Z,64.40
2017-06-21T04:08:25.508Z,64.40
2017-06-21T04:10:52.548Z,64.80
2017-06-21T04:13:19.616Z,64.90
2017-06-21T04:15:45.942Z,64.90
2017-06-21T04:18:13.033Z,65.30
2017-06-21T04:20:39.372Z,65.20
2017-06-21T04:23:05.712Z,65.30
2017-06-21T04:25:32.019Z,65.40
2017-06-21T04:27:58.365Z,65.50
2017-06-21T04:30:24.675Z,65.40
2017-06-21T04:32:51.011Z,65.50
2017-06-21T04:35:17.307Z,65.60
2017-06-21T04:37:43.639Z,65.50
2017-06-21T04:40:09.943Z,65.50
2017-06-21T04:42:36.996Z,65.20
2017-06-21T04:45:04.063Z,65.50
2017-06-21T04:47:30.368Z,65.50
2017-06-21T04:49:56.712Z,65.60
2017-06-21T04:52:23.770Z,65.80
2017-06-21T04:54:50.118Z,65.80
2017-06-21T04:59:49.637Z,65.80
2017-06-21T05:02:15.943Z,65.70
2017-06-21T05:04:43.016Z,66.10
2017-06-21T05:07:09.319Z,66.10
2017-06-21T05:09:36.399Z,66.30
2017-06-21T05:12:02.700Z,66.20
2017-06-21T05:14:29.744Z,66.40
2017-06-21T05:16:56.823Z,66.80
2017-06-21T05:19:23.153Z,66.80
2017-06-21T05:21:49.474Z,66.30
2017-06-21T05:24:15.801Z,66.10
2017-06-21T05:26:42.140Z,66.00
2017-06-21T05:29:08.446Z,65.80
2017-06-21T05:31:35.522Z,65.80
2017-06-21T05:34:01.828Z,65.70
2017-06-21T05:36:28.928Z,65.80
2017-06-21T05:38:55.250Z,65.70
2017-06-21T05:41:21.569Z,65.20
2017-06-21T05:43:47.902Z,65.30
2017-06-21T05:46:14.210Z,65.60
2017-06-21T05:48:40.525Z,65.40
2017-06-21T05:51:07.571Z,65.60
2017-06-21T05:53:34.652Z,66.10
2017-06-21T05:56:00.967Z,65.10
2017-06-21T05:58:27.300Z,64.90
2017-06-21T06:00:53.640Z,64.60
2017-06-21T06:03:19.961Z,64.20
2017-06-21T06:05:46.282Z,63.70
2017-06-21T06:08:12.592Z,64.00
2017-06-21T06:10:38.932Z,64.00
2017-06-21T06:13:05.980Z,61.90
2017-06-21T06:15:33.053Z,61.60
2017-06-21T06:17:59.361Z,61.60
2017-06-21T06:20:26.454Z,61.90
2017-06-21T06:22:52.765Z,61.80
2017-06-21T06:25:19.071Z,61.20
2017-06-21T06:27:46.131Z,61.20
2017-06-21T06:30:12.443Z,61.20
2017-06-21T06:32:39.511Z,61.30
2017-06-21T06:35:05.827Z,61.30
2017-06-21T06:37:32.928Z,60.20
2017-06-21T06:39:59.231Z,60.20
2017-06-21T06:42:25.542Z,60.20
2017-06-21T06:44:52.639Z,60.20
2017-06-21T06:47:18.983Z,60.10
2017-06-21T06:49:45.307Z,59.40
2017-06-21T06:52:11.618Z,59.40
2017-06-21T06:54:37.947Z,59.40
2017-06-21T06:57:04.273Z,59.10
2017-06-21T06:59:30.595Z,59.30
2017-06-21T07:01:56.918Z,59.50
2017-06-21T07:04:23.264Z,59.30
2017-06-21T07:06:49.588Z,59.30
2017-06-21T07:09:15.910Z,59.40
2017-06-21T07:11:42.237Z,59.20
2017-06-21T07:14:08.743Z,60.00
2017-06-21T07:16:35.805Z,59.90
2017-06-21T07:19:02.869Z,60.00
2017-06-21T07:21:29.195Z,59.80
2017-06-21T07:23:55.501Z,59.30
2017-06-21T07:26:22.587Z,59.00
2017-06-21T07:28:48.891Z,58.90
2017-06-21T07:31:15.218Z,59.00
2017-06-21T07:33:42.299Z,58.60
2017-06-21T07:36:08.639Z,58.60
2017-06-21T07:38:34.964Z,58.70
2017-06-21T07:41:01.271Z,59.30
2017-06-21T07:43:27.599Z,60.00
2017-06-21T07:45:53.913Z,59.10
2017-06-21T07:48:21.031Z,59.20
2017-06-21T07:50:47.350Z,59.10
2017-06-21T07:53:13.697Z,58.50
2017-06-21T07:55:40.001Z,58.70
2017-06-21T07:58:06.313Z,59.20
2017-06-21T08:00:32.649Z,58.60
2017-06-21T08:02:58.969Z,60.20
2017-06-21T08:05:25.300Z,59.70
2017-06-21T08:07:51.621Z,58.70
2017-06-21T08:10:17.964Z,58.50
2017-06-21T08:12:44.268Z,58.40
2017-06-21T08:15:11.347Z,57.90
2017-06-21T08:17:37.649Z,57.90
2017-06-21T08:20:04.739Z,58.40
2017-06-21T08:22:31.028Z,58.30
2017-06-21T08:24:58.111Z,57.70
2017-06-21T08:27:24.415Z,57.70
2017-06-21T08:29:50.758Z,57.60
2017-06-21T08:32:17.088Z,58.10
2017-06-21T08:34:43.399Z,57.60
2017-06-21T08:37:10.467Z,57.50
2017-06-21T08:39:36.765Z,57.50
2017-06-21T08:42:03.845Z,57.70
2017-06-21T08:44:30.156Z,57.40
2017-06-21T08:46:57.323Z,57.30
2017-06-21T08:49:23.890Z,57.30
2017-06-21T08:51:50.219Z,58.00
2017-06-21T08:54:16.547Z,57.00
2017-06-21T08:56:42.860Z,56.80
2017-06-21T08:59:09.178Z,56.40
2017-06-21T09:01:35.495Z,56.00
2017-06-21T09:04:01.827Z,56.10
2017-06-21T09:06:28.138Z,57.30
2017-06-21T09:08:54.472Z,56.60
2017-06-21T09:11:20.789Z,56.50
2017-06-21T09:13:47.112Z,55.60
2017-06-21T09:16:13.438Z,55.90
2017-06-21T09:18:39.767Z,56.00
2017-06-21T09:21:06.096Z,55.40
2017-06-21T09:23:33.152Z,53.90
2017-06-21T09:25:59.488Z,53.80
2017-06-21T09:28:25.880Z,55.10
2017-06-21T09:30:52.465Z,54.00
2017-06-21T09:33:18.918Z,54.70
2017-06-21T09:35:45.367Z,52.90
2017-06-21T09:38:11.761Z,54.90
2017-06-21T09:40:38.191Z,54.10
2017-06-21T09:43:04.642Z,53.40
2017-06-21T09:45:31.096Z,53.30
2017-06-21T09:47:57.506Z,52.20
2017-06-21T09:50:23.959Z,53.50
2017-06-21T09:52:50.277Z,52.30
2017-06-21T09:55:16.583Z,53.10
2017-06-21T09:57:42.904Z,52.10
2017-06-21T10:00:09.221Z,52.40
2017-06-21T10:02:35.632Z,51.50
2017-06-21T10:05:01.973Z,52.40
2017-06-21T10:07:28.288Z,52.20
2017-06-21T10:09:54.583Z,51.20
2017-06-21T10:12:20.919Z,52.70
2017-06-21T10:14:47.229Z,52.70
2017-06-21T10:17:13.556Z,50.60
2017-06-21T10:19:39.895Z,51.20
2017-06-21T10:22:06.228Z,52.00
2017-06-21T10:24:32.536Z,51.50
2017-06-21T10:26:58.850Z,51.80
2017-06-21T10:29:25.513Z,50.40
2017-06-21T10:31:51.816Z,50.50
2017-06-21T10:34:18.887Z,49.00
2017-06-21T10:36:45.188Z,49.00
2017-06-21T10:39:12.251Z,50.00
2017-06-21T10:41:38.553Z,49.90
2017-06-21T10:44:04.887Z,49.50
2017-06-21T10:46:31.195Z,49.30
2017-06-21T10:48:58.260Z,49.20
2017-06-21T10:51:25.319Z,48.20
2017-06-21T10:53:51.658Z,48.10
2017-06-21T10:56:17.979Z,50.10
2017-06-21T10:58:44.295Z,50.80
2017-06-21T11:01:10.611Z,48.50
2017-06-21T11:03:37.644Z,48.00
2017-06-21T11:06:03.964Z,48.00
2017-06-21T11:08:30.285Z,48.40
2017-06-21T11:10:56.604Z,47.00
2017-06-21T11:13:22.903Z,48.20
2017-06-21T11:15:49.219Z,47.80
2017-06-21T11:18:15.543Z,47.00
2017-06-21T11:20:42.990Z,46.90
2017-06-21T11:23:10.026Z,47.50
2017-06-21T11:25:36.372Z,47.40
2017-06-21T11:28:03.423Z,47.20
2017-06-21T11:30:30.459Z,45.60
2017-06-21T11:32:56.792Z,46.10
2017-06-21T11:35:23.096Z,45.10
2017-06-21T11:37:49.427Z,45.20
2017-06-21T11:40:15.744Z,45.80
2017-06-21T11:42:42.824Z,45.60
2017-06-21T11:45:09.156Z,45.70
2017-06-21T11:47:35.495Z,44.80
2017-06-21T11:50:01.799Z,43.80
2017-06-21T11:52:28.134Z,44.90
2017-06-21T11:54:54.452Z,45.90
2017-06-21T11:57:21.502Z,45.80
2017-06-21T11:59:48.581Z,44.70
2017-06-21T12:02:14.889Z,44.70
2017-06-21T12:04:41.235Z,44.70
2017-06-21T12:07:07.536Z,45.40
2017-06-21T12:09:34.596Z,45.50
2017-06-21T12:12:00.902Z,45.50
2017-06-21T12:14:27.253Z,45.20
2017-06-21T12:16:54.297Z,46.70
2017-06-21T12:19:21.407Z,47.60
2017-06-21T12:21:47.715Z,47.60
2017-06-21T12:24:14.024Z,46.60
2017-06-21T12:26:40.359Z,45.20
2017-06-21T12:29:06.666Z,45.30
2017-06-21T12:31:33.726Z,45.40
2017-06-21T12:34:00.025Z,45.30
2017-06-21T12:36:26.362Z,45.60
2017-06-21T12:38:53.403Z,46.60
2017-06-21T12:41:19.724Z,46.20
2017-06-21T12:43:46.031Z,46.00
2017-06-21T12:46:12.362Z,45.90
2017-06-21T12:48:38.671Z,46.10
2017-06-21T12:51:04.978Z,45.40
2017-06-21T12:53:32.060Z,47.70
2017-06-21T12:55:58.365Z,47.60
2017-06-21T12:58:24.701Z,46.60
2017-06-21T13:00:51.006Z,45.80
2017-06-21T13:03:18.202Z,46.20
2017-06-21T13:05:44.528Z,46.20
2017-06-21T13:08:10.851Z,47.00
2017-06-21T13:10:37.167Z,46.70
2017-06-21T13:13:03.494Z,46.70
2017-06-21T13:15:29.793Z,46.20
2017-06-21T13:17:56.127Z,45.60
2017-06-21T13:20:22.459Z,45.60
2017-06-21T13:22:48.766Z,45.60
2017-06-21T13:25:15.103Z,45.80
2017-06-21T13:27:41.408Z,46.10
2017-06-21T13:30:07.747Z,46.00
2017-06-21T13:32:34.056Z,46.00
2017-06-21T13:35:00.384Z,45.10
2017-06-21T13:37:26.723Z,45.50
2017-06-21T13:39:53.059Z,45.30
2017-06-21T13:42:19.367Z,46.30
2017-06-21T13:44:45.687Z,45.70
2017-06-21T13:47:11.992Z,45.30
2017-06-21T13:49:45.479Z,45.70
2017-06-21T13:52:11.775Z,45.60
2017-06-21T13:54:38.123Z,46.10
2017-06-21T13:57:04.423Z,45.50
2017-06-21T13:59:30.729Z,45.60
2017-06-21T14:01:57.066Z,47.30
2017-06-21T14:04:24.107Z,46.50
2017-06-21T14:06:51.170Z,45.30
2017-06-21T14:09:17.475Z,45.30
2017-06-21T14:11:44.544Z,44.50
2017-06-21T14:14:10.849Z,44.50
2017-06-21T14:16:37.962Z,45.60
2017-06-21T14:19:04.280Z,45.00
2017-06-21T14:21:30.665Z,44.00
2017-06-21T14:23:57.709Z,42.90
2017-06-21T14:26:24.756Z,43.10
2017-06-21T14:28:51.830Z,43.40
2017-06-21T14:31:18.144Z,42.80
2017-06-21T14:33:45.220Z,42.80
2017-06-21T14:36:11.527Z,42.80
2017-06-21T14:38:38.602Z,42.30
2017-06-21T14:41:04.918Z,42.30
2017-06-21T14:43:31.255Z,41.90
2017-06-21T14:45:57.564Z,42.60
2017-06-21T14:48:24.638Z,42.50
2017-06-21T14:50:50.938Z,42.50
2017-06-21T14:53:18.039Z,42.80
2017-06-21T14:55:44.346Z,42.80
2017-06-21T14:58:10.652Z,42.70
2017-06-21T15:00:37.728Z,41.10
2017-06-21T15:03:04.044Z,41.10
2017-06-21T15:05:30.374Z,42.00
2017-06-21T15:07:56.679Z,42.70
2017-06-21T15:10:23.755Z,41.90
2017-06-21T15:12:50.065Z,42.10
2017-06-21T15:15:17.147Z,41.30
2017-06-21T15:17:43.456Z,41.30
2017-06-21T15:20:09.871Z,40.50
2017-06-21T15:22:36.938Z,40.80
2017-06-21T15:25:03.281Z,40.70
2017-06-21T15:27:29.732Z,41.50
2017-06-21T15:29:56.035Z,42.00
2017-06-21T15:32:22.360Z,41.70
2017-06-21T15:34:48.671Z,42.20
2017-06-21T15:37:15.741Z,42.00
2017-06-21T15:39:42.087Z,41.40
2017-06-21T15:42:08.421Z,40.20
2017-06-21T15:44:34.731Z,39.80
2017-06-21T15:47:01.074Z,39.90
2017-06-21T15:49:27.395Z,39.90
2017-06-21T15:51:53.737Z,39.50
2017-06-21T15:54:20.056Z,39.40
2017-06-21T15:56:46.410Z,38.80
2017-06-21T15:59:12.706Z,38.80
2017-06-21T16:01:39.766Z,38.00
2017-06-21T16:04:06.098Z,37.90
2017-06-21T16:06:32.419Z,37.90
2017-06-21T16:08:59.487Z,37.70
2017-06-21T16:11:25.792Z,37.60
2017-06-21T16:13:52.855Z,38.80
2017-06-21T16:16:19.159Z,38.70
2017-06-21T16:18:46.250Z,39.80
2017-06-21T16:21:12.600Z,39.80
2017-06-21T16:23:38.939Z,40.00
2017-06-21T16:26:05.263Z,39.80
2017-06-21T16:28:31.608Z,40.00
2017-06-21T16:30:57.930Z,40.90
2017-06-21T16:33:24.235Z,40.00
2017-06-21T16:35:50.566Z,40.20
2017-06-21T16:38:16.883Z,40.30
2017-06-21T16:40:43.257Z,40.70
2017-06-21T16:43:09.560Z,41.40
2017-06-21T16:45:35.873Z,42.20
2017-06-21T16:48:02.247Z,42.10
2017-06-21T16:50:28.556Z,42.40
2017-06-21T16:52:54.992Z,43.00
2017-06-21T16:55:21.336Z,42.40
2017-06-21T16:57:47.649Z,42.10
2017-06-21T17:00:13.967Z,42.40
2017-06-21T17:02:40.295Z,42.60
2017-06-21T17:05:06.605Z,42.90
2017-06-21T17:07:33.679Z,42.70
2017-06-21T17:09:59.984Z,42.60
2017-06-21T17:12:27.056Z,41.90
2017-06-21T17:14:53.366Z,41.90
2017-06-21T17:17:19.702Z,41.60
2017-06-21T17:19:46.052Z,42.00
2017-06-21T17:22:12.379Z,42.50
2017-06-21T17:24:38.689Z,42.60
2017-06-21T17:27:05.016Z,43.20
2017-06-21T17:29:32.065Z,41.00
2017-06-21T17:31:58.378Z,40.90
2017-06-21T17:34:25.451Z,41.10
2017-06-21T17:36:51.760Z,41.10
2017-06-21T17:39:18.828Z,42.30
2017-06-21T17:41:45.135Z,42.20
2017-06-21T17:44:12.195Z,42.40
2017-06-21T17:46:39.244Z,42.30
2017-06-21T17:49:06.323Z,42.30
2017-06-21T17:51:32.661Z,42.20
2017-06-21T17:53:58.983Z,41.90
2017-06-21T17:56:25.294Z,42.00
2017-06-21T17:58:51.629Z,41.10
2017-06-21T18:01:17.959Z,40.60
2017-06-21T18:03:44.267Z,40.70
2017-06-21T18:06:11.337Z,40.90
2017-06-21T18:08:37.646Z,40.90
2017-06-21T18:11:04.712Z,41.50
2017-06-21T18:13:31.029Z,41.50
2017-06-21T18:15:58.101Z,41.80
2017-06-21T18:18:25.417Z,41.80
2017-06-21T18:20:52.491Z,41.70
2017-06-21T18:23:18.813Z,41.10
2017-06-21T18:25:45.904Z,40.40
2017-06-21T18:28:12.211Z,40.30
2017-06-21T18:30:38.619Z,40.10
2017-06-21T18:33:04.969Z,40.00
2017-06-21T18:35:31.277Z,40.00
2017-06-21T18:37:58.401Z,40.30
2017-06-21T18:40:24.706Z,40.20
2017-06-21T18:42:51.027Z,40.20
2017-06-21T18:45:17.332Z,41.50
2017-06-21T18:47:43.660Z,42.70
2017-06-21T18:50:09.983Z,42.40
2017-06-21T18:52:37.071Z,43.00
2017-06-21T18:55:03.378Z,43.00
2017-06-21T18:57:29.683Z,43.00
2017-06-21T18:59:56.751Z,44.40
2017-06-21T19:02:23.064Z,43.80
2017-06-21T19:04:50.156Z,44.10
2017-06-21T19:07:16.472Z,44.00
2017-06-21T19:09:42.795Z,44.00
2017-06-21T19:12:09.108Z,45.00
2017-06-21T19:14:36.181Z,46.30
2017-06-21T19:17:02.496Z,46.20
2017-06-21T19:19:28.835Z,46.10
2017-06-21T19:21:55.140Z,46.60
2017-06-21T19:24:22.201Z,48.10
2017-06-21T19:26:49.277Z,48.80
2017-06-21T19:29:15.607Z,48.80
2017-06-21T19:31:42.035Z,48.80
2017-06-21T19:34:08.344Z,48.10
2017-06-21T19:36:35.428Z,49.20
2017-06-21T19:39:01.814Z,49.10
2017-06-21T19:41:29.078Z,49.80
2017-06-21T19:43:55.396Z,49.70
2017-06-21T19:46:21.730Z,50.20
2017-06-21T19:48:48.779Z,50.50
2017-06-21T19:51:15.084Z,50.40
2017-06-21T19:53:41.407Z,50.60
2017-06-21T19:56:07.713Z,50.50
2017-06-21T19:58:34.047Z,50.20
2017-06-21T20:01:00.366Z,49.70
2017-06-21T20:03:26.705Z,49.50
2017-06-21T20:05:53.012Z,50.00
2017-06-21T20:08:19.378Z,50.30
2017-06-21T20:10:45.678Z,50.20
2017-06-21T20:13:12.011Z,50.30
2017-06-21T20:15:38.331Z,50.20
2017-06-21T20:18:04.667Z,49.80
2017-06-21T20:20:31.005Z,50.30
2017-06-21T20:22:57.365Z,50.20
2017-06-21T20:25:23.704Z,49.80
2017-06-21T20:27:50.054Z,50.00
2017-06-21T20:30:16.408Z,50.20
2017-06-21T20:32:43.459Z,50.10
2017-06-21T20:35:09.818Z,50.00
2017-06-21T20:37:36.138Z,50.10
2017-06-21T20:40:02.480Z,50.20
2017-06-21T20:42:28.782Z,50.20
2017-06-21T20:44:55.845Z,50.60
2017-06-21T20:47:22.148Z,50.60
2017-06-21T20:49:49.211Z,51.50
2017-06-21T20:52:15.531Z,51.50
2017-06-21T20:54:42.602Z,51.70
2017-06-21T20:57:08.909Z,51.70
2017-06-21T20:59:35.968Z,52.00
2017-06-21T21:02:02.307Z,52.00
2017-06-21T21:04:28.610Z,51.40
2017-06-21T21:06:55.736Z,52.40
2017-06-21T21:09:22.328Z,52.20
2017-06-21T21:11:48.659Z,52.60
2017-06-21T21:14:14.965Z,52.70
2017-06-21T21:16:41.312Z,52.60
2017-06-21T21:19:07.660Z,52.50
2017-06-21T21:21:33.964Z,52.60
2017-06-21T21:24:01.023Z,53.00
2017-06-21T21:26:27.346Z,53.00
2017-06-21T21:28:53.683Z,53.00
2017-06-21T21:31:19.974Z,53.40
2017-06-21T21:33:46.305Z,53.40
2017-06-21T21:36:12.623Z,53.90
2017-06-21T21:38:38.960Z,54.10
2017-06-21T21:41:05.258Z,54.10
2017-06-21T21:43:31.590Z,54.00
2017-06-21T21:45:57.899Z,53.60
2017-06-21T21:48:24.229Z,53.50
2017-06-21T21:50:50.531Z,53.40
2017-06-21T21:53:17.580Z,53.80
2017-06-21T21:55:43.919Z,53.70
2017-06-21T21:58:10.977Z,53.90
2017-06-21T22:00:37.319Z,53.80
2017-06-21T22:03:04.367Z,54.00
2017-06-21T22:05:31.447Z,54.30
2017-06-21T22:07:57.758Z,54.20
2017-06-21T22:10:24.088Z,54.30
2017-06-21T22:12:51.132Z,54.50
2017-06-21T22:15:18.205Z,54.80
2017-06-21T22:17:44.507Z,54.80
2017-06-21T22:20:11.591Z,55.20
2017-06-21T22:22:37.903Z,55.20
2017-06-21T22:25:04.246Z,55.40
2017-06-21T22:27:30.559Z,55.50
2017-06-21T22:30:04.006Z,55.60
2017-06-21T22:32:30.336Z,55.70
2017-06-21T22:34:56.646Z,55.70
2017-06-21T22:37:22.978Z,55.70
2017-06-21T22:39:49.277Z,55.90
2017-06-21T22:42:15.612Z,56.10
2017-06-21T22:44:41.917Z,56.10
2017-06-21T22:47:08.996Z,56.10
2017-06-21T22:49:35.309Z,56.10
2017-06-21T22:52:02.355Z,55.90
2017-06-21T22:54:29.431Z,55.80
2017-06-21T22:56:55.725Z,55.80
2017-06-21T22:59:22.791Z,56.10
2017-06-21T23:01:49.100Z,56.00
2017-06-21T23:04:16.180Z,56.00
2017-06-21T23:06:42.480Z,56.00
2017-06-21T23:09:09.548Z,56.20
2017-06-21T23:11:35.864Z,56.20
2017-06-21T23:14:02.953Z,56.30
2017-06-21T23:16:29.260Z,56.20
2017-06-21T23:18:55.600Z,56.40
2017-06-21T23:21:21.919Z,56.30
2017-06-21T23:23:48.230Z,57.00
2017-06-21T23:26:15.298Z,56.40
2017-06-21T23:28:41.609Z,56.30
2017-06-21T23:31:08.675Z,56.40
2017-06-21T23:33:34.986Z,56.30
2017-06-21T23:36:02.068Z,56.70
2017-06-21T23:38:28.375Z,56.70
2017-06-21T23:40:55.429Z,56.90
2017-06-21T23:43:21.811Z,57.40
2017-06-21T23:45:48.123Z,57.00
2017-06-21T23:48:14.454Z,57.10
2017-06-21T23:50:40.763Z,57.10
2017-06-21T23:53:07.093Z,57.10
2017-06-21T23:55:33.408Z,57.10
2017-06-21T23:57:59.735Z,57.20
